createdAt,value
2024-02-01T00:00:49.444Z,52.78
2024-02-01T00:01:49.419Z,50.93
2024-02-01T00:02:49.513Z,50.92
2024-02-01T00:03:49.432Z,53.44
2024-02-01T00:04:49.462Z,51.75
2024-02-01T00:05:49.524Z,53.54
2024-02-01T00:06:49.609Z,50.60
2024-02-01T00:07:49.467Z,52.56
2024-02-01T00:08:49.499Z,52.89
2024-02-01T00:09:49.467Z,50.17
2024-02-01T00:10:49.471Z,52.55
2024-02-01T00:11:49.490Z,51.91
2024-02-01T00:12:49.473Z,54.52
2024-02-01T00:13:49.493Z,53.68
2024-02-01T00:14:49.578Z,53.67
2024-02-01T00:15:49.510Z,54.74
2024-02-01T00:16:49.489Z,52.11
2024-02-01T00:17:49.621Z,52.43
2024-02-01T00:18:49.657Z,52.52
2024-02-01T00:19:49.542Z,53.21
2024-02-01T00:20:49.964Z,51.36
2024-02-01T00:21:49.521Z,52.93
2024-02-01T00:22:49.523Z,52.18
2024-02-01T00:23:49.552Z,51.68
2024-02-01T00:24:49.538Z,53.51
2024-02-01T00:25:49.558Z,53.42
2024-02-01T00:26:49.600Z,52.19
2024-02-01T00:27:49.602Z,53.46
2024-02-01T00:28:49.587Z,51.73
2024-02-01T00:29:49.656Z,51.36
2024-02-01T00:30:49.620Z,51.07
2024-02-01T00:31:49.644Z,52.70
2024-02-01T00:32:49.754Z,53.86
2024-02-01T00:33:49.804Z,52.01
2024-02-01T00:34:49.958Z,52.44
2024-02-01T00:35:49.760Z,53.09
2024-02-01T00:36:49.710Z,51.97
2024-02-01T00:37:49.713Z,51.11
2024-02-01T00:38:49.740Z,51.31
2024-02-01T00:39:49.738Z,51.69
2024-02-01T00:40:49.750Z,51.80
2024-02-01T00:41:49.881Z,51.65
2024-02-01T00:42:49.834Z,50.88
2024-02-01T00:43:49.778Z,51.31
2024-02-01T00:44:49.812Z,51.75
2024-02-01T00:45:49.821Z,50.78
2024-02-01T00:46:49.828Z,51.69
2024-02-01T00:47:49.975Z,52.14
2024-02-01T00:48:49.948Z,51.69
2024-02-01T00:49:49.918Z,53.30
2024-02-01T00:50:49.923Z,51.92
2024-02-01T00:51:49.931Z,52.48
2024-02-01T00:52:49.967Z,51.69
2024-02-01T00:53:50.002Z,50.83
2024-02-01T00:54:51.960Z,54.39
2024-02-01T00:55:50.030Z,51.21
2024-02-01T00:56:50.093Z,52.37
2024-02-01T00:57:50.074Z,54.01
2024-02-01T00:58:50.100Z,54.25
2024-02-01T00:59:50.246Z,51.20
2024-02-01T01:00:50.363Z,53.23
2024-02-01T01:01:50.209Z,55.47
2024-02-01T01:02:50.226Z,54.06
2024-02-01T01:03:50.229Z,52.25
2024-02-01T01:04:50.313Z,51.65
2024-02-01T01:05:50.338Z,51.30
2024-02-01T01:06:50.287Z,52.76
2024-02-01T01:07:50.358Z,50.00
2024-02-01T01:08:50.389Z,54.37
2024-02-01T01:09:50.363Z,53.33
2024-02-01T01:10:50.397Z,53.51
2024-02-01T01:11:50.443Z,54.19
2024-02-01T01:12:50.426Z,52.60
2024-02-01T01:13:50.450Z,52.38
2024-02-01T01:14:50.493Z,53.55
2024-02-01T01:15:50.495Z,52.62
2024-02-01T01:16:50.576Z,52.97
2024-02-01T01:17:50.607Z,53.01
2024-02-01T01:18:50.738Z,52.94
2024-02-01T01:19:50.687Z,52.00
2024-02-01T01:20:50.660Z,53.73
2024-02-01T01:21:50.649Z,52.90
2024-02-01T01:22:50.640Z,52.54
2024-02-01T01:23:50.700Z,52.61
2024-02-01T01:24:50.688Z,53.89
2024-02-01T01:25:50.739Z,54.09
2024-02-01T01:26:50.751Z,51.27
2024-02-01T01:27:50.774Z,51.66
2024-02-01T01:28:50.780Z,53.57
2024-02-01T01:29:50.854Z,53.27
2024-02-01T01:30:50.840Z,51.29
2024-02-01T01:31:50.888Z,53.17
2024-02-01T01:32:51.004Z,53.41
2024-02-01T01:33:51.127Z,54.39
2024-02-01T01:34:50.980Z,53.05
2024-02-01T01:35:51.018Z,53.27
2024-02-01T01:36:50.988Z,54.11
2024-02-01T01:37:51.017Z,53.68
2024-02-01T01:38:51.085Z,53.52
2024-02-01T01:39:51.072Z,54.94
2024-02-01T01:40:51.095Z,51.63
2024-02-01T01:41:51.176Z,53.40
2024-02-01T01:42:51.161Z,52.03
2024-02-01T01:43:51.179Z,51.81
2024-02-01T01:44:51.223Z,52.56
2024-02-01T01:45:51.235Z,51.23
2024-02-01T01:46:51.246Z,53.06
2024-02-01T01:47:51.385Z,52.56
2024-02-01T01:48:51.538Z,51.50
2024-02-01T01:49:51.435Z,53.80
2024-02-01T01:50:51.379Z,52.30
2024-02-01T01:51:51.411Z,50.94
2024-02-01T01:52:51.425Z,53.90
2024-02-01T01:53:51.470Z,52.84
2024-02-01T01:54:51.500Z,52.82
2024-02-01T01:55:51.547Z,52.12
2024-02-01T01:56:51.647Z,52.12
2024-02-01T01:57:51.606Z,53.27
2024-02-01T01:58:51.635Z,50.79
2024-02-01T01:59:51.731Z,52.20
2024-02-01T02:00:51.759Z,50.68
2024-02-01T02:01:51.770Z,50.00
2024-02-01T02:02:51.817Z,51.79
2024-02-01T02:03:51.877Z,53.14
2024-02-01T02:04:51.874Z,55.05
2024-02-01T02:05:51.935Z,54.27
2024-02-01T02:06:52.054Z,52.84
2024-02-01T02:07:52.002Z,52.36
2024-02-01T02:08:52.083Z,52.97
2024-02-01T02:09:52.057Z,53.91
2024-02-01T02:10:52.090Z,54.24
2024-02-01T02:11:52.199Z,51.76
2024-02-01T02:12:52.185Z,53.49
2024-02-01T02:13:52.244Z,54.01
2024-02-01T02:14:52.296Z,52.59
2024-02-01T02:15:52.310Z,51.87
2024-02-01T02:16:52.381Z,52.19
2024-02-01T02:17:52.617Z,51.17
2024-02-01T02:18:52.566Z,52.02
2024-02-01T02:19:52.467Z,52.55
2024-02-01T02:20:52.565Z,52.38
2024-02-01T02:21:52.562Z,53.20
2024-02-01T02:22:52.615Z,52.50
2024-02-01T02:23:52.674Z,52.67
2024-02-01T02:24:52.698Z,52.77
2024-02-01T02:25:52.743Z,53.17
2024-02-01T02:26:52.807Z,54.43
2024-02-01T02:27:52.818Z,53.91
2024-02-01T02:28:52.853Z,53.36
2024-02-01T02:29:52.914Z,52.87
2024-02-01T02:30:52.930Z,53.36
2024-02-01T02:31:52.976Z,53.34
2024-02-01T02:32:53.069Z,52.10
2024-02-01T02:33:53.240Z,51.79
2024-02-01T02:34:53.123Z,51.89
2024-02-01T02:35:53.201Z,51.40
2024-02-01T02:36:53.175Z,52.38
2024-02-01T02:37:53.199Z,51.47
2024-02-01T02:38:53.221Z,51.30
2024-02-01T02:39:53.260Z,52.41
2024-02-01T02:40:53.292Z,50.37
2024-02-01T02:41:53.347Z,50.78
2024-02-01T02:42:53.333Z,52.04
2024-02-01T02:43:53.386Z,51.98
2024-02-01T02:44:53.444Z,51.00
2024-02-01T02:45:53.436Z,51.54
2024-02-01T02:46:53.460Z,50.83
2024-02-01T02:47:53.583Z,53.13
2024-02-01T02:48:53.599Z,51.77
2024-02-01T02:49:53.568Z,52.15
2024-02-01T02:50:53.623Z,53.29
2024-02-01T02:51:53.576Z,52.68
2024-02-01T02:52:53.582Z,53.14
2024-02-01T02:53:53.656Z,52.36
2024-02-01T02:54:53.617Z,51.90
2024-02-01T02:55:53.637Z,51.67
2024-02-01T02:56:53.660Z,51.61
2024-02-01T02:57:53.665Z,52.83
2024-02-01T02:58:53.671Z,52.98
2024-02-01T02:59:53.714Z,54.07
2024-02-01T03:00:53.716Z,52.39
2024-02-01T03:01:53.708Z,53.96
2024-02-01T03:02:53.734Z,55.26
2024-02-01T03:03:53.753Z,51.80
2024-02-01T03:04:53.739Z,53.80
2024-02-01T03:05:53.789Z,54.31
2024-02-01T03:06:53.819Z,53.47
2024-02-01T03:07:53.748Z,53.41
2024-02-01T03:08:53.814Z,54.24
2024-02-01T03:09:53.762Z,51.58
2024-02-01T03:10:53.768Z,53.39
2024-02-01T03:11:53.799Z,53.01
2024-02-01T03:12:53.781Z,54.25
2024-02-01T03:13:53.817Z,53.20
2024-02-01T03:14:53.828Z,52.50
2024-02-01T03:15:53.862Z,52.44
2024-02-01T03:16:53.895Z,54.31
2024-02-01T03:17:54.022Z,52.94
2024-02-01T03:18:54.169Z,51.81
2024-02-01T03:19:54.118Z,51.92
2024-02-01T03:20:54.085Z,53.50
2024-02-01T03:21:54.107Z,52.23
2024-02-01T03:22:54.130Z,53.60
2024-02-01T03:23:54.209Z,51.25
2024-02-01T03:24:54.193Z,52.05
2024-02-01T03:25:54.254Z,51.87
2024-02-01T03:26:54.344Z,53.00
2024-02-01T03:27:54.330Z,52.75
2024-02-01T03:28:54.424Z,54.41
2024-02-01T03:29:54.502Z,52.58
2024-02-01T03:30:54.491Z,52.56
2024-02-01T03:31:54.566Z,51.66
2024-02-01T03:32:54.680Z,51.75
2024-02-01T03:33:54.764Z,52.47
2024-02-01T03:34:54.752Z,51.34
2024-02-01T03:35:54.813Z,52.23
2024-02-01T03:36:54.866Z,54.29
2024-02-01T03:37:54.915Z,51.92
2024-02-01T03:38:55.016Z,53.68
2024-02-01T03:39:55.047Z,51.87
2024-02-01T03:40:55.106Z,51.13
2024-02-01T03:41:55.195Z,51.04
2024-02-01T03:42:55.260Z,52.02
2024-02-01T03:43:55.323Z,53.01
2024-02-01T03:44:55.444Z,50.19
2024-02-01T03:45:55.478Z,51.52
2024-02-01T03:46:55.742Z,51.05
2024-02-01T03:47:55.746Z,51.98
2024-02-01T03:48:55.993Z,50.76
2024-02-01T03:49:55.903Z,51.93
2024-02-01T03:50:55.861Z,53.75
2024-02-01T03:51:55.888Z,50.70
2024-02-01T03:52:56.038Z,51.12
2024-02-01T03:53:56.070Z,54.61
2024-02-01T03:54:56.089Z,53.87
2024-02-01T03:55:56.166Z,55.85
2024-02-01T03:56:56.289Z,53.54
2024-02-01T03:57:56.301Z,52.32
2024-02-01T03:58:56.370Z,53.44
2024-02-01T03:59:56.526Z,52.64
2024-02-01T04:00:56.504Z,53.34
2024-02-01T04:01:56.591Z,52.08
2024-02-01T04:02:56.659Z,52.92
2024-02-01T04:03:56.717Z,50.51
2024-02-01T04:04:56.772Z,51.30
2024-02-01T04:05:56.854Z,52.68
2024-02-01T04:06:57.017Z,51.78
2024-02-01T04:07:56.955Z,51.40
2024-02-01T04:08:57.081Z,52.05
2024-02-01T04:09:57.083Z,52.11
2024-02-01T04:10:57.161Z,53.64
2024-02-01T04:11:57.239Z,50.71
2024-02-01T04:12:57.294Z,51.23
2024-02-01T04:13:57.368Z,51.24
2024-02-01T04:14:57.486Z,51.74
2024-02-01T04:16:10.460Z,51.93
2024-02-01T04:16:57.494Z,52.15
2024-02-01T04:17:57.555Z,52.68
2024-02-01T04:18:57.676Z,52.98
2024-02-01T04:19:57.531Z,54.14
2024-02-01T04:20:57.578Z,53.02
2024-02-01T04:21:57.494Z,54.23
2024-02-01T04:22:57.500Z,52.60
2024-02-01T04:23:57.586Z,52.83
2024-02-01T04:24:57.508Z,51.86
2024-02-01T04:25:57.593Z,52.33
2024-02-01T04:26:58.236Z,53.10
2024-02-01T04:27:57.586Z,53.11
2024-02-01T04:28:57.505Z,52.37
2024-02-01T04:29:57.571Z,52.97
2024-02-01T04:30:57.500Z,50.25
2024-02-01T04:31:57.518Z,51.41
2024-02-01T04:32:57.575Z,53.23
2024-02-01T04:33:57.577Z,51.52
2024-02-01T04:34:57.577Z,50.02
2024-02-01T04:35:57.527Z,50.60
2024-02-01T04:36:57.535Z,52.17
2024-02-01T04:37:57.628Z,51.21
2024-02-01T04:38:57.543Z,51.93
2024-02-01T04:39:57.534Z,51.56
2024-02-01T04:40:57.603Z,53.56
2024-02-01T04:41:57.656Z,50.95
2024-02-01T04:42:57.719Z,51.35
2024-02-01T04:43:57.769Z,52.63
2024-02-01T04:44:57.839Z,51.18
2024-02-01T04:45:57.889Z,52.62
2024-02-01T04:46:57.957Z,52.06
2024-02-01T04:47:58.095Z,52.78
2024-02-01T04:48:58.179Z,50.33
2024-02-01T04:49:58.152Z,53.42
2024-02-01T04:50:58.229Z,52.71
2024-02-01T04:51:58.263Z,52.34
2024-02-01T04:52:58.303Z,51.45
2024-02-01T04:53:58.422Z,51.33
2024-02-01T04:55:05.739Z,50.00
2024-02-01T04:56:05.730Z,50.00
2024-02-01T04:57:05.761Z,50.00
2024-02-01T04:58:05.726Z,50.00
2024-02-01T04:59:05.727Z,50.00
2024-02-01T05:00:05.758Z,50.86
2024-02-01T05:01:05.792Z,53.47
2024-02-01T05:02:05.952Z,50.00
2024-02-01T05:03:05.881Z,50.59
2024-02-01T05:04:05.875Z,51.13
2024-02-01T05:05:05.746Z,52.68
2024-02-01T05:06:05.843Z,51.00
2024-02-01T05:07:05.851Z,50.90
2024-02-01T05:08:05.732Z,50.48
2024-02-01T05:09:05.785Z,52.13
2024-02-01T05:10:05.791Z,51.90
2024-02-01T05:11:05.991Z,50.34
2024-02-01T05:12:05.841Z,53.73
2024-02-01T05:13:05.756Z,51.42
2024-02-01T05:14:05.739Z,52.69
2024-02-01T05:15:05.752Z,52.65
2024-02-01T05:16:05.747Z,53.34
2024-02-01T05:17:05.761Z,52.97
2024-02-01T05:18:06.164Z,51.74
2024-02-01T05:19:06.299Z,53.06
2024-02-01T05:20:05.940Z,51.75
2024-02-01T05:21:05.943Z,51.59
2024-02-01T05:22:05.959Z,52.36
2024-02-01T05:23:06.050Z,51.10
2024-02-01T05:24:06.089Z,52.35
2024-02-01T05:25:06.153Z,53.13
2024-02-01T05:26:06.218Z,51.85
2024-02-01T05:27:06.288Z,52.78
2024-02-01T05:28:06.326Z,52.23
2024-02-01T05:29:06.387Z,51.38
2024-02-01T05:30:06.464Z,51.65
2024-02-01T05:31:06.520Z,50.90
2024-02-01T05:32:06.610Z,52.03
2024-02-01T05:33:06.662Z,52.32
2024-02-01T05:34:06.752Z,51.83
2024-02-01T05:35:06.721Z,51.64
2024-02-01T05:36:06.841Z,50.19
2024-02-01T05:37:06.838Z,50.59
2024-02-01T05:38:07.333Z,52.22
2024-02-01T05:39:07.062Z,52.47
2024-02-01T05:40:07.002Z,51.11
2024-02-01T05:41:07.070Z,50.44
2024-02-01T05:42:07.147Z,50.85
2024-02-01T05:43:07.176Z,50.96
2024-02-01T05:44:07.233Z,51.58
2024-02-01T05:45:07.309Z,51.24
2024-02-01T05:46:07.337Z,52.57
2024-02-01T05:47:07.443Z,52.05
2024-02-01T05:48:07.564Z,50.93
2024-02-01T05:49:07.643Z,50.16
2024-02-01T05:50:07.563Z,51.85
2024-02-01T05:51:07.688Z,51.45
2024-02-01T05:52:07.672Z,51.38
2024-02-01T05:53:07.726Z,51.63
2024-02-01T05:54:07.803Z,50.72
2024-02-01T05:55:07.856Z,51.94
2024-02-01T05:56:07.883Z,51.80
2024-02-01T05:57:07.954Z,50.52
2024-02-01T05:58:08.059Z,52.50
2024-02-01T05:59:08.039Z,50.40
2024-02-01T06:00:08.235Z,52.87
2024-02-01T06:01:08.193Z,50.53
2024-02-01T06:02:08.244Z,50.59
2024-02-01T06:03:08.276Z,50.46
2024-02-01T06:04:08.367Z,50.96
2024-02-01T06:05:08.352Z,53.26
2024-02-01T06:06:08.491Z,52.60
2024-02-01T06:07:08.504Z,53.08
2024-02-01T06:08:08.481Z,52.61
2024-02-01T06:09:08.621Z,51.89
2024-02-01T06:10:08.591Z,52.79
2024-02-01T06:11:08.638Z,52.38
2024-02-01T06:12:08.708Z,53.29
2024-02-01T06:13:08.737Z,50.74
2024-02-01T06:14:08.794Z,50.00
2024-02-01T06:15:09.107Z,51.72
2024-02-01T06:16:09.005Z,52.52
2024-02-01T06:17:08.922Z,51.22
2024-02-01T06:18:09.122Z,53.42
2024-02-01T06:19:09.115Z,52.86
2024-02-01T06:20:09.061Z,50.78
2024-02-01T06:21:09.132Z,52.10
2024-02-01T06:22:09.123Z,51.88
2024-02-01T06:23:09.194Z,51.86
2024-02-01T06:24:09.258Z,52.30
2024-02-01T06:25:09.267Z,52.06
2024-02-01T06:26:09.304Z,51.45
2024-02-01T06:27:09.406Z,52.54
2024-02-01T06:28:09.393Z,50.00
2024-02-01T06:29:09.515Z,50.96
2024-02-01T06:30:09.510Z,52.85
2024-02-01T06:31:09.524Z,55.99
2024-02-01T06:32:09.545Z,57.69
2024-02-01T06:33:09.667Z,58.34
2024-02-01T06:34:09.705Z,58.58
2024-02-01T06:35:09.818Z,59.10
2024-02-01T06:36:09.703Z,59.71
2024-02-01T06:37:09.699Z,59.22
2024-02-01T06:38:09.743Z,60.26
2024-02-01T06:39:09.792Z,59.79
2024-02-01T06:40:09.835Z,58.29
2024-02-01T06:41:09.816Z,59.99
2024-02-01T06:42:09.900Z,61.36
2024-02-01T06:43:09.971Z,60.93
2024-02-01T06:44:09.899Z,61.64
2024-02-01T06:45:10.059Z,60.90
2024-02-01T06:46:10.275Z,62.46
2024-02-01T06:47:09.951Z,62.81
2024-02-01T06:48:10.340Z,71.78
2024-02-01T06:49:10.045Z,71.70
2024-02-01T06:50:10.042Z,72.25
2024-02-01T06:51:10.033Z,72.81
2024-02-01T06:52:10.015Z,78.75
2024-02-01T06:53:10.128Z,81.82
2024-02-01T06:54:10.234Z,88.25
2024-02-01T06:55:10.169Z,91.74
2024-02-01T06:56:10.218Z,95.08
2024-02-01T06:57:10.373Z,96.04
2024-02-01T06:58:10.376Z,95.49
2024-02-01T06:59:10.499Z,98.81
2024-02-01T07:00:10.606Z,98.39
2024-02-01T07:01:10.662Z,99.76
2024-02-01T07:02:10.646Z,101.43
2024-02-01T07:03:10.878Z,103.29
2024-02-01T07:04:10.822Z,105.45
2024-02-01T07:05:10.909Z,106.74
2024-02-01T07:06:11.021Z,106.50
2024-02-01T07:07:11.531Z,106.36
2024-02-01T07:08:11.102Z,109.44
2024-02-01T07:09:11.199Z,109.56
2024-02-01T07:10:11.215Z,109.65
2024-02-01T07:11:11.284Z,109.68
2024-02-01T07:12:11.708Z,111.62
2024-02-01T07:13:11.414Z,110.15
2024-02-01T07:14:11.493Z,111.04
2024-02-01T07:15:11.541Z,112.09
2024-02-01T07:16:11.593Z,111.66
2024-02-01T07:17:11.658Z,112.71
2024-02-01T07:18:11.815Z,113.15
2024-02-01T07:19:12.081Z,112.45
2024-02-01T07:20:11.810Z,112.88
2024-02-01T07:21:11.880Z,112.85
2024-02-01T07:22:11.895Z,112.27
2024-02-01T07:23:11.933Z,112.40
2024-02-01T07:24:11.988Z,111.68
2024-02-01T07:25:12.006Z,112.29
2024-02-01T07:26:12.026Z,112.51
2024-02-01T07:27:12.095Z,111.22
2024-02-01T07:28:12.118Z,112.10
2024-02-01T07:29:12.150Z,113.07
2024-02-01T07:30:12.231Z,112.34
2024-02-01T07:31:12.229Z,112.31
2024-02-01T07:32:12.265Z,112.52
2024-02-01T07:33:12.345Z,112.52
2024-02-01T07:34:12.511Z,112.58
2024-02-01T07:35:12.417Z,111.65
2024-02-01T07:36:12.467Z,111.33
2024-02-01T07:37:12.480Z,110.62
2024-02-01T07:38:12.512Z,111.90
2024-02-01T07:39:12.582Z,111.10
2024-02-01T07:40:12.621Z,111.28
2024-02-01T07:41:12.659Z,111.70
2024-02-01T07:42:12.715Z,111.59
2024-02-01T07:43:12.735Z,111.36
2024-02-01T07:44:12.781Z,111.34
2024-02-01T07:45:12.901Z,110.71
2024-02-01T07:46:12.867Z,109.80
2024-02-01T07:47:12.878Z,110.23
2024-02-01T07:48:13.024Z,111.15
2024-02-01T07:49:13.114Z,110.24
2024-02-01T07:50:13.003Z,109.81
2024-02-01T07:51:13.159Z,110.54
2024-02-01T07:52:13.058Z,109.88
2024-02-01T07:53:13.072Z,109.32
2024-02-01T07:54:13.095Z,111.44
2024-02-01T07:55:13.082Z,109.83
2024-02-01T07:56:13.104Z,109.89
2024-02-01T07:57:13.268Z,109.93
2024-02-01T07:58:13.126Z,108.08
2024-02-01T07:59:13.115Z,107.48
2024-02-01T08:00:13.170Z,106.44
2024-02-01T08:01:13.207Z,107.62
2024-02-01T08:02:13.281Z,110.24
2024-02-01T08:03:14.008Z,111.00
2024-02-01T08:04:13.447Z,111.96
2024-02-01T08:05:13.470Z,114.05
2024-02-01T08:06:13.601Z,116.46
2024-02-01T08:07:13.704Z,115.38
2024-02-01T08:08:13.640Z,116.99
2024-02-01T08:09:13.831Z,119.48
2024-02-01T08:10:13.716Z,123.79
2024-02-01T08:11:13.783Z,126.23
2024-02-01T08:12:13.822Z,127.99
2024-02-01T08:13:13.882Z,133.94
2024-02-01T08:14:13.933Z,136.07
2024-02-01T08:15:14.041Z,137.27
2024-02-01T08:16:14.049Z,139.37
2024-02-01T08:17:14.089Z,141.23
2024-02-01T08:18:14.245Z,141.14
2024-02-01T08:19:20.338Z,141.47
2024-02-01T08:20:15.306Z,141.54
2024-02-01T08:21:14.260Z,141.61
2024-02-01T08:22:14.235Z,142.29
2024-02-01T08:23:14.251Z,143.24
2024-02-01T08:24:14.270Z,142.65
2024-02-01T08:25:14.245Z,143.47
2024-02-01T08:26:14.250Z,143.73
2024-02-01T08:27:14.307Z,143.14
2024-02-01T08:28:14.287Z,143.27
2024-02-01T08:29:14.329Z,141.89
2024-02-01T08:30:14.452Z,144.54
2024-02-01T08:31:14.391Z,144.21
2024-02-01T08:32:14.402Z,143.48
2024-02-01T08:33:14.478Z,144.79
2024-02-01T08:34:14.561Z,145.14
2024-02-01T08:35:14.506Z,144.66
2024-02-01T08:36:14.537Z,144.37
2024-02-01T08:37:14.504Z,144.58
2024-02-01T08:38:14.525Z,143.95
2024-02-01T08:39:14.558Z,141.52
2024-02-01T08:40:14.541Z,141.30
2024-02-01T08:41:14.522Z,140.17
2024-02-01T08:42:14.837Z,140.07
2024-02-01T08:43:14.540Z,139.66
2024-02-01T08:44:14.582Z,138.38
2024-02-01T08:45:14.606Z,137.45
2024-02-01T08:46:14.608Z,135.09
2024-02-01T08:47:15.033Z,132.96
2024-02-01T08:48:15.074Z,133.45
2024-02-01T08:49:14.701Z,133.18
2024-02-01T08:50:14.663Z,131.45
2024-02-01T08:51:14.658Z,126.86
2024-02-01T08:52:14.653Z,124.20
2024-02-01T08:53:14.676Z,122.23
2024-02-01T08:54:14.910Z,121.17
2024-02-01T08:55:14.835Z,120.64
2024-02-01T08:56:14.706Z,120.49
2024-02-01T08:57:14.791Z,119.28
2024-02-01T08:58:14.774Z,119.11
2024-02-01T08:59:14.798Z,118.68
2024-02-01T09:00:14.900Z,119.21
2024-02-01T09:01:14.958Z,120.03
2024-02-01T09:02:15.014Z,119.96
2024-02-01T09:03:15.103Z,120.08
2024-02-01T09:04:15.805Z,118.93
2024-02-01T09:05:15.266Z,120.73
2024-02-01T09:06:15.489Z,120.28
2024-02-01T09:07:15.415Z,122.91
2024-02-01T09:08:15.371Z,124.92
2024-02-01T09:09:15.449Z,123.22
2024-02-01T09:10:21.341Z,124.91
2024-02-01T09:11:16.456Z,125.00
2024-02-01T09:12:15.516Z,125.33
2024-02-01T09:13:15.471Z,125.83
2024-02-01T09:14:15.475Z,126.70
2024-02-01T09:15:15.738Z,129.21
2024-02-01T09:16:15.488Z,129.90
2024-02-01T09:17:15.479Z,128.22
2024-02-01T09:18:15.582Z,130.59
2024-02-01T09:19:15.613Z,127.54
2024-02-01T09:20:15.501Z,132.25
2024-02-01T09:21:15.528Z,131.77
2024-02-01T09:22:15.485Z,131.47
2024-02-01T09:23:15.490Z,133.50
2024-02-01T09:24:15.504Z,132.95
2024-02-01T09:25:15.472Z,137.12
2024-02-01T09:26:15.490Z,139.02
2024-02-01T09:27:15.534Z,141.30
2024-02-01T09:28:15.534Z,142.46
2024-02-01T09:29:15.634Z,142.59
2024-02-01T09:30:22.970Z,50.00
2024-02-01T09:31:23.013Z,50.00
2024-02-01T09:32:22.909Z,50.00
2024-02-01T09:33:23.047Z,50.00
2024-02-01T09:34:23.116Z,50.00
2024-02-01T09:35:22.977Z,52.24
2024-02-01T09:36:23.067Z,51.25
2024-02-01T09:37:24.973Z,52.42
2024-02-01T09:38:23.011Z,52.48
2024-02-01T09:39:23.041Z,52.49
2024-02-01T09:40:23.046Z,53.61
2024-02-01T09:41:23.051Z,53.74
2024-02-01T09:42:23.109Z,57.77
2024-02-01T09:43:23.123Z,59.81
2024-02-01T09:44:23.134Z,60.77
2024-02-01T09:45:23.152Z,65.06
2024-02-01T09:46:23.267Z,68.96
2024-02-01T09:47:23.185Z,67.05
2024-02-01T09:48:23.417Z,70.92
2024-02-01T09:49:28.374Z,73.98
2024-02-01T09:50:24.307Z,74.12
2024-02-01T09:51:23.304Z,74.87
2024-02-01T09:52:23.262Z,76.44
2024-02-01T09:53:23.359Z,79.62
2024-02-01T09:54:23.425Z,81.55
2024-02-01T09:55:23.288Z,84.53
2024-02-01T09:56:23.254Z,85.85
2024-02-01T09:57:23.444Z,86.89
2024-02-01T09:58:23.296Z,90.87
2024-02-01T09:59:23.302Z,89.91
2024-02-01T10:00:23.393Z,91.64
2024-02-01T10:01:23.396Z,93.99
2024-02-01T10:02:23.270Z,95.26
2024-02-01T10:03:23.340Z,92.36
2024-02-01T10:04:24.594Z,94.45
2024-02-01T10:05:23.295Z,97.66
2024-02-01T10:06:23.365Z,97.91
2024-02-01T10:07:23.389Z,102.17
2024-02-01T10:08:23.298Z,102.65
2024-02-01T10:09:24.160Z,105.16
2024-02-01T10:10:23.277Z,104.99
2024-02-01T10:11:23.358Z,106.70
2024-02-01T10:12:23.357Z,109.64
2024-02-01T10:13:23.403Z,112.78
2024-02-01T10:14:23.318Z,115.90
2024-02-01T10:15:23.287Z,115.20
2024-02-01T10:16:23.290Z,117.52
2024-02-01T10:17:23.311Z,119.08
2024-02-01T10:18:23.498Z,120.08
2024-02-01T10:19:23.439Z,120.30
2024-02-01T10:20:23.361Z,120.87
2024-02-01T10:21:29.425Z,123.96
2024-02-01T10:22:24.297Z,124.09
2024-02-01T10:23:23.338Z,124.64
2024-02-01T10:24:23.506Z,126.33
2024-02-01T10:25:23.361Z,127.23
2024-02-01T10:26:23.378Z,128.98
2024-02-01T10:27:24.405Z,133.63
2024-02-01T10:28:23.324Z,134.11
2024-02-01T10:29:23.352Z,133.74
2024-02-01T10:30:23.362Z,138.96
2024-02-01T10:31:23.512Z,137.00
2024-02-01T10:32:23.477Z,138.34
2024-02-01T10:33:24.567Z,137.41
2024-02-01T10:34:23.795Z,138.80
2024-02-01T10:35:23.695Z,140.55
2024-02-01T10:36:23.953Z,141.66
2024-02-01T10:37:23.835Z,141.49
2024-02-01T10:38:23.900Z,142.23
2024-02-01T10:39:24.043Z,142.69
2024-02-01T10:40:24.004Z,145.17
2024-02-01T10:41:24.059Z,147.59
2024-02-01T10:42:24.177Z,146.32
2024-02-01T10:43:24.189Z,147.56
2024-02-01T10:44:24.242Z,149.63
2024-02-01T10:45:24.415Z,148.34
2024-02-01T10:46:24.352Z,152.75
2024-02-01T10:47:24.417Z,154.23
2024-02-01T10:48:24.613Z,153.66
2024-02-01T10:49:24.549Z,155.10
2024-02-01T10:50:24.562Z,156.29
2024-02-01T10:51:24.620Z,151.36
2024-02-01T10:52:24.740Z,147.49
2024-02-01T10:53:24.673Z,144.60
2024-02-01T10:54:25.083Z,142.66
2024-02-01T10:55:24.769Z,141.88
2024-02-01T10:56:24.842Z,136.56
2024-02-01T10:57:24.928Z,127.49
2024-02-01T10:58:24.892Z,118.62
2024-02-01T10:59:24.889Z,108.20
2024-02-01T11:00:25.030Z,96.86
2024-02-01T11:01:25.046Z,84.99
2024-02-01T11:02:25.011Z,74.70
2024-02-01T11:03:25.094Z,62.27
2024-02-01T11:04:25.075Z,56.45
2024-02-01T11:05:25.058Z,53.59
2024-02-01T11:06:25.141Z,51.72
2024-02-01T11:07:25.169Z,51.22
2024-02-01T11:08:25.219Z,50.78
2024-02-01T11:09:27.849Z,51.04
2024-02-01T11:10:25.295Z,51.11
2024-02-01T11:11:25.272Z,51.25
2024-02-01T11:12:25.452Z,51.42
2024-02-01T11:13:25.269Z,49.21
2024-02-01T11:14:25.280Z,48.38
2024-02-01T11:15:28.125Z,50.00
2024-02-01T11:16:25.278Z,50.12
2024-02-01T11:17:25.387Z,50.33
2024-02-01T11:18:25.396Z,51.06
2024-02-01T11:19:25.490Z,50.55
2024-02-01T11:20:25.337Z,49.43
2024-02-01T11:21:25.291Z,51.33
2024-02-01T11:22:25.289Z,51.76
2024-02-01T11:23:25.322Z,50.48
2024-02-01T11:24:25.306Z,51.34
2024-02-01T11:25:25.302Z,50.00
2024-02-01T11:26:25.307Z,52.38
2024-02-01T11:27:25.353Z,54.75
2024-02-01T11:28:25.295Z,51.21
2024-02-01T11:29:25.331Z,53.08
2024-02-01T11:30:25.341Z,54.14
2024-02-01T11:31:30.629Z,54.48
2024-02-01T11:32:26.319Z,54.55
2024-02-01T11:33:25.370Z,54.81
2024-02-01T11:34:25.612Z,54.32
2024-02-01T11:35:25.302Z,55.35
2024-02-01T11:36:25.340Z,56.24
2024-02-01T11:37:28.180Z,57.06
2024-02-01T11:38:25.320Z,57.18
2024-02-01T11:39:25.388Z,55.51
2024-02-01T11:40:25.317Z,57.28
2024-02-01T11:41:25.314Z,58.43
2024-02-01T11:42:31.502Z,58.89
2024-02-01T11:43:26.317Z,57.27
2024-02-01T11:44:25.345Z,57.88
2024-02-01T11:45:25.428Z,58.94
2024-02-01T11:46:25.344Z,60.01
2024-02-01T11:47:25.335Z,60.43
2024-02-01T11:48:25.444Z,59.62
2024-02-01T11:49:28.945Z,58.65
2024-02-01T11:50:25.630Z,58.79
2024-02-01T11:51:25.376Z,58.93
2024-02-01T11:52:25.335Z,59.96
2024-02-01T11:53:25.337Z,60.38
2024-02-01T11:54:25.378Z,60.66
2024-02-01T11:55:27.196Z,60.21
2024-02-01T11:56:25.359Z,62.35
2024-02-01T11:57:25.389Z,63.38
2024-02-01T11:58:25.341Z,61.91
2024-02-01T11:59:25.362Z,63.82
2024-02-01T12:00:38.174Z,64.34
2024-02-01T12:01:28.984Z,64.49
2024-02-01T12:02:25.353Z,64.51
2024-02-01T12:03:25.449Z,65.01
2024-02-01T12:04:25.377Z,66.08
2024-02-01T12:05:25.346Z,67.59
2024-02-01T12:06:25.418Z,69.61
2024-02-01T12:07:25.438Z,69.27
2024-02-01T12:08:25.360Z,70.96
2024-02-01T12:09:25.365Z,73.27
2024-02-01T12:10:25.350Z,70.28
2024-02-01T12:11:25.481Z,70.48
2024-02-01T12:12:25.441Z,72.39
2024-02-01T12:13:25.461Z,71.29
2024-02-01T12:14:25.362Z,71.97
2024-02-01T12:15:25.356Z,73.62
2024-02-01T12:16:25.356Z,76.72
2024-02-01T12:17:25.392Z,78.69
2024-02-01T12:18:25.507Z,82.15
2024-02-01T12:19:25.569Z,84.33
2024-02-01T12:20:25.357Z,83.90
2024-02-01T12:21:25.381Z,87.60
2024-02-01T12:22:25.364Z,87.48
2024-02-01T12:23:25.357Z,91.70
2024-02-01T12:24:25.407Z,93.50
2024-02-01T12:25:25.368Z,94.87
2024-02-01T12:26:27.371Z,93.73
2024-02-01T12:27:25.417Z,93.90
2024-02-01T12:28:25.376Z,94.74
2024-02-01T12:29:26.086Z,95.78
2024-02-01T12:30:25.477Z,99.53
2024-02-01T12:31:25.384Z,104.42
2024-02-01T12:32:25.380Z,102.19
2024-02-01T12:33:25.534Z,108.19
2024-02-01T12:34:25.493Z,104.57
2024-02-01T12:35:25.364Z,105.41
2024-02-01T12:36:25.409Z,107.68
2024-02-01T12:37:25.369Z,107.11
2024-02-01T12:38:25.383Z,111.16
2024-02-01T12:39:25.398Z,109.57
2024-02-01T12:40:25.393Z,110.46
2024-02-01T12:41:25.368Z,115.16
2024-02-01T12:42:25.396Z,114.72
2024-02-01T12:43:25.463Z,117.29
2024-02-01T12:44:25.400Z,117.06
2024-02-01T12:45:25.438Z,115.92
2024-02-01T12:46:25.811Z,118.12